Latest Weather Observations for Millendon (Swan Valley)

IDW60801

Issued at 10:34 pm WST Friday 28 February 2020 (issued every 10 minutes, with the page automatically refreshed every 10 minutes)

About weather observations | Map of weather stations | Latest weather observations for WA | Other Formats
Station Details ID: 009281 Name: MILLENDON (SWAN VALLEY) Lat: -31.81 Lon: 116.02 Height: 16.0 m
Data from the previous 72 hours. | See also: Recent months at Millendon (Swan Valley)
Date/Time
WST
Temp
°C
App
Temp
°C
Dew
Point
°C
Rel
Hum
%
Delta-T
°C
Wind Press
QNH
hPa
Press
MSL
hPa
Rain since
9am
mm
Dir  Spd
km/h
Gust
km/h
Spd
kts
Gust
kts
28/10:30pm 21.6 25.4 20.2 92 0.9 CALM 0 0 0 0 - - 0.2
28/10:00pm 21.9 25.7 20.2 90 1.1 CALM 0 0 0 0 - - 0.2
28/09:30pm 22.5 26.3 20.2 87 1.5 CALM 0 0 0 0 - - 0.2
28/09:00pm 23.1 27.0 20.4 85 1.8 CALM 0 2 0 1 - - 0.2
28/08:30pm 23.9 27.1 20.6 82 2.2 SW 4 6 2 3 - - 0.2
28/08:00pm 24.3 26.9 20.4 79 2.5 WSW 7 11 4 6 - - 0.2
28/07:30pm 25.7 28.3 18.4 64 4.6 N 2 4 1 2 - - 0.2
28/07:00pm 27.3 28.9 17.8 56 6.0 NE 6 13 3 7 - - 0.2
28/06:30pm 28.3 28.8 17.5 52 6.8 NE 11 24 6 13 - - 0.2
28/06:00pm 29.3 30.6 17.5 49 7.5 NE 7 15 4 8 - - 0.2
28/05:30pm 29.5 29.7 17.7 49 7.5 NE 13 24 7 13 - - 0.2
28/05:00pm 29.8 30.4 17.6 48 7.8 NE 11 20 6 11 - - 0.2
28/04:30pm 30.5 31.6 17.9 47 8.1 NE 9 26 5 14 - - 0.2
28/04:00pm 30.0 30.4 18.1 49 7.6 NNE 13 24 7 13 - - 0.2
28/03:30pm 29.8 30.7 18.3 50 7.4 ENE 11 24 6 13 - - 0.2
28/03:00pm 29.3 29.6 17.8 50 7.3 ENE 13 22 7 12 - - 0.2
28/02:30pm 29.4 30.3 18.5 52 7.0 NE 11 28 6 15 - - 0.2
28/02:00pm 28.3 28.3 18.1 54 6.5 NNE 15 30 8 16 - - 0.2
28/01:30pm 27.6 27.4 18.6 58 5.8 ENE 17 35 9 19 - - 0.2
28/01:00pm 27.9 27.0 17.7 53 6.5 ENE 19 44 10 24 - - 0.2
28/12:30pm 26.4 24.8 17.5 58 5.6 ENE 22 41 12 22 - - 0.0
28/12:00pm 25.8 24.7 17.7 61 5.1 ENE 20 41 11 22 - - 0.0
28/11:30am 24.4 23.8 17.6 66 4.2 NE 17 33 9 18 - - 0.0
28/11:00am 25.1 23.9 17.6 63 4.7 ENE 20 39 11 21 - - 0.0
28/10:30am 25.6 24.8 17.0 59 5.3 NE 17 35 9 19 - - 0.0
28/10:00am 25.5 24.2 16.9 59 5.3 ENE 19 44 10 24 - - 0.0
28/09:30am 24.8 23.3 16.8 61 4.9 ENE 20 43 11 23 - - 0.0
28/09:00am 24.0 22.8 17.0 65 4.3 NNE 19 35 10 19 - - 12.0
28/08:30am 24.4 23.4 16.6 61 4.8 ENE 17 32 9 17 - - 12.0
28/08:00am 22.5 22.7 17.6 74 3.0 ENE 13 32 7 17 - - 11.8
28/07:30am 22.0 20.5 17.6 76 2.7 NE 22 44 12 24 - - 11.0
28/07:19am 26.6 23.9 15.6 50 6.7 NE 24 54 13 29 - - 6.8
28/07:00am 26.8 24.5 15.8 51 6.7 ENE 22 48 12 26 - - 6.8
28/06:30am 25.4 23.4 16.5 58 5.5 NE 22 46 12 25 - - 6.8
28/06:00am 26.6 24.3 15.6 50 6.7 ENE 22 43 12 23 - - 6.8
28/05:30am 26.8 24.2 15.8 51 6.7 ENE 24 48 13 26 - - 6.8
28/05:00am 26.5 24.9 16.4 53 6.2 NE 20 39 11 21 - - 6.8
28/04:30am 26.2 24.7 16.7 56 5.9 ENE 20 43 11 23 - - 6.8
28/04:00am 26.2 24.3 16.7 56 5.9 ENE 22 43 12 23 - - 6.6
28/03:30am 26.6 25.1 16.8 55 6.1 ENE 20 44 11 24 - - 6.6
28/03:00am 26.4 25.1 17.2 57 5.8 ENE 20 44 11 24 - - 6.6
28/02:30am 26.2 25.1 17.3 58 5.6 ENE 19 37 10 20 - - 6.6
28/02:00am 25.9 24.7 17.5 59 5.3 ENE 20 43 11 23 - - 6.6
28/01:30am 25.5 24.8 17.4 61 5.1 ENE 17 43 9 23 - - 6.6
28/01:00am 25.1 23.7 17.1 61 5.0 E 20 41 11 22 - - 6.6
28/12:30am 25.7 24.2 16.8 58 5.5 E 20 43 11 23 - - 6.6
28/12:00am 25.7 24.1 16.5 56 5.7 E 20 46 11 25 - - 6.6
 
Date/Time
WST
Temp
°C
App
Temp
°C
Dew
Point
°C
Rel
Hum
%
Delta-T
°C
Wind Press
QNH
hPa
Press
MSL
hPa
Rain since
9am
mm
Dir  Spd
km/h
Gust
km/h
Spd
kts
Gust
kts
27/11:30pm 25.9 23.9 16.5 56 5.8 E 22 54 12 29 - - 6.6
27/11:00pm 25.8 23.8 16.4 56 5.8 E 22 43 12 23 - - 6.6
27/10:30pm 25.7 24.1 16.5 56 5.7 E 20 46 11 25 - - 6.6
27/10:00pm 25.1 23.4 17.3 62 4.9 E 22 41 12 22 - - 6.6
27/09:30pm 24.9 23.4 17.6 64 4.6 E 22 43 12 23 - - 6.6
27/09:00pm 24.8 23.7 17.8 65 4.4 E 20 41 11 22 - - 6.6
27/08:30pm 24.9 23.4 17.6 64 4.6 E 22 43 12 23 - - 6.6
27/08:00pm 25.1 23.9 17.6 63 4.7 E 20 39 11 21 - - 6.6
27/07:30pm 25.4 24.3 17.3 61 5.0 E 19 41 10 22 - - 6.6
27/07:00pm 25.2 24.0 17.4 62 4.9 E 20 39 11 21 - - 6.6
27/06:30pm 25.6 24.7 17.8 62 4.9 E 19 39 10 21 - - 6.6
27/06:00pm 25.3 24.8 17.7 62 4.8 E 17 35 9 19 - - 6.6
27/05:30pm 25.4 24.9 17.8 62 4.8 E 17 32 9 17 - - 6.2
27/05:00pm 24.5 23.6 18.2 68 4.0 E 20 44 11 24 - - 6.0
27/04:30pm 23.9 23.3 18.5 72 3.4 E 19 37 10 20 - - 6.0
27/04:00pm 23.8 23.6 18.4 72 3.4 E 17 33 9 18 - - 6.0
27/03:30pm 23.6 23.1 18.7 74 3.1 E 19 43 10 23 - - 5.8
27/03:00pm 23.7 23.5 18.6 73 3.2 E 17 37 9 20 - - 5.2
27/02:30pm 23.4 21.5 18.5 74 3.1 ENE 26 46 14 25 - - 5.0
27/02:16pm 23.4 21.0 18.3 73 3.2 ENE 28 57 15 31 - - 4.4
27/02:00pm 23.9 21.9 18.3 71 3.5 ENE 26 46 14 25 - - 4.2
27/01:30pm 23.1 21.7 18.8 77 2.7 NNE 24 48 13 26 - - 3.8
27/01:00pm 22.9 21.5 18.9 78 2.5 ENE 24 54 13 29 - - 3.8
27/12:30pm 23.8 23.3 18.7 73 3.2 NNE 19 33 10 18 - - 3.2
27/12:00pm 22.0 24.9 19.9 88 1.3 ESE 4 9 2 5 - - 3.2
27/11:30am 22.4 24.5 19.4 83 1.9 NE 7 15 4 8 - - 2.6
27/11:00am 22.3 23.0 18.9 81 2.1 ENE 13 24 7 13 - - 2.4
27/10:30am 22.6 22.5 18.8 79 2.4 NE 17 28 9 15 - - 1.2
27/10:00am 22.4 21.8 18.8 80 2.3 NNE 20 39 11 21 - - 1.0
27/09:30am 23.8 23.0 18.4 72 3.4 NE 20 52 11 28 - - 0.2
27/09:00am 25.2 25.1 17.9 64 4.6 NNE 15 33 8 18 - - 11.0
27/08:30am 24.7 26.4 18.6 69 3.9 NNE 7 26 4 14 - - 11.0
27/08:00am 24.3 26.2 18.5 70 3.7 SSE 6 13 3 7 - - 11.0
27/07:30am 23.4 25.3 18.5 74 3.1 S 6 17 3 9 - - 11.0
27/07:00am 22.9 24.9 18.7 77 2.7 ESE 6 13 3 7 - - 11.0
27/06:30am 22.9 24.0 18.9 78 2.5 NW 11 22 6 12 - - 11.0
27/06:00am 22.7 23.3 18.7 78 2.5 ESE 13 30 7 16 - - 11.0
27/05:30am 22.8 22.8 19.0 79 2.4 E 17 33 9 18 - - 11.0
27/05:00am 23.2 23.1 18.7 76 2.8 NE 17 52 9 28 - - 11.0
27/04:30am 23.2 23.9 18.9 77 2.7 ENE 13 32 7 17 - - 11.0
27/04:00am 22.9 23.0 19.1 79 2.4 E 17 32 9 17 - - 11.0
27/03:30am 22.5 23.0 19.3 82 2.0 E 15 32 8 17 - - 11.0
27/03:00am 22.2 22.5 19.6 85 1.7 E 17 32 9 17 - - 10.8
27/02:30am 22.9 23.3 19.1 79 2.4 E 15 35 8 19 - - 10.2
27/02:00am 23.0 23.5 19.2 79 2.4 E 15 32 8 17 - - 10.2
27/01:30am 22.9 25.1 19.5 81 2.2 NNE 7 19 4 10 - - 10.2
27/01:00am 23.8 26.0 19.1 75 3.0 E 6 17 3 9 - - 9.8
27/12:30am 23.8 25.0 19.1 75 3.0 ESE 11 37 6 20 - - 9.8
27/12:00am 24.1 26.0 19.0 73 3.2 ENE 7 22 4 12 - - 9.8
 
Date/Time
WST
Temp
°C
App
Temp
°C
Dew
Point
°C
Rel
Hum
%
Delta-T
°C
Wind Press
QNH
hPa
Press
MSL
hPa
Rain since
9am
mm
Dir  Spd
km/h
Gust
km/h
Spd
kts
Gust
kts
26/11:30pm 24.0 25.5 18.9 73 3.2 E 9 17 5 9 - - 9.8
26/11:00pm 24.1 25.9 18.7 72 3.4 SSE 7 11 4 6 - - 9.8
26/10:30pm 24.0 25.7 18.6 72 3.4 E 7 26 4 14 - - 9.8
26/10:00pm 24.9 26.7 18.4 67 4.1 NE 6 13 3 7 - - 9.6
26/09:30pm 25.0 26.8 18.2 66 4.3 WSW 6 17 3 9 - - 9.6
26/09:00pm 24.6 25.7 18.8 70 3.7 ENE 11 24 6 13 - - 9.6
26/08:30pm 24.3 25.3 19.4 74 3.1 E 13 24 7 13 - - 9.6
26/08:00pm 24.2 26.4 19.7 76 2.9 E 7 17 4 9 - - 9.6
26/07:30pm 24.1 26.5 20.0 78 2.7 ENE 7 15 4 8 - - 9.6
26/07:00pm 24.5 27.1 20.0 76 2.9 ESE 6 15 3 8 - - 9.6
26/06:30pm 24.2 27.0 20.5 80 2.4 SSE 6 11 3 6 - - 9.6
26/06:00pm 24.1 26.7 20.4 80 2.4 ENE 7 19 4 10 - - 9.6
26/05:30pm 24.1 26.0 20.6 81 2.3 ENE 11 28 6 15 - - 9.6
26/05:00pm 24.4 26.9 20.3 78 2.7 ENE 7 19 4 10 - - 9.4
26/04:30pm 24.5 26.3 20.4 78 2.7 NE 11 26 6 14 - - 9.2
26/04:00pm 25.0 27.2 20.3 75 3.1 E 9 20 5 11 - - 9.0
26/03:30pm 26.5 27.9 19.6 66 4.5 NE 11 26 6 14 - - 8.8
26/03:00pm 26.8 27.4 19.4 64 4.8 ENE 15 30 8 16 - - 8.8
26/02:30pm 26.3 28.3 19.9 68 4.2 NE 9 20 5 11 - - 8.8
26/02:00pm 26.0 27.3 20.1 70 3.8 NE 13 28 7 15 - - 8.8
26/01:30pm 25.0 27.0 20.7 77 2.8 ENE 11 24 6 13 - - 8.8
26/01:00pm 22.7 25.4 21.3 92 0.9 ESE 9 20 5 11 - - 8.8
26/12:30pm 23.0 23.3 19.6 81 2.2 N 17 32 9 17 - - 4.8
26/12:00pm 27.3 28.3 18.6 59 5.6 ENE 11 24 6 13 - - 0.0
26/11:30am 28.2 28.9 18.9 57 6.0 E 13 28 7 15 - - 0.0
26/11:00am 27.6 27.6 18.0 55 6.1 ENE 15 32 8 17 - - 0.0
26/10:30am 26.8 27.2 18.1 59 5.5 ESE 13 32 7 17 - - 0.0
26/10:00am 26.0 26.2 17.6 60 5.3 E 13 26 7 14 - - 0.0
26/09:30am 25.5 26.3 17.4 61 5.1 SW 9 20 5 11 - - 0.0
26/09:00am 25.6 27.1 17.5 61 5.1 SSW 6 15 3 8 - - 2.4
26/08:30am 24.2 24.5 17.0 64 4.4 E 11 20 6 11 - - 2.4
26/08:00am 22.6 23.1 16.6 69 3.7 ESE 9 20 5 11 - - 2.4
26/07:30am 22.4 22.8 16.4 69 3.6 ENE 9 19 5 10 - - 2.4
26/07:00am 21.8 22.2 16.3 71 3.3 E 9 24 5 13 - - 2.4
26/06:30am 21.5 21.5 16.2 72 3.2 ESE 11 22 6 12 - - 2.4
26/06:00am 21.5 22.4 16.5 73 3.0 ESE 7 13 4 7 - - 2.4
26/05:30am 21.4 21.8 16.4 73 3.0 ESE 9 17 5 9 - - 2.4
26/05:00am 21.8 22.8 16.3 71 3.3 SSE 6 13 3 7 - - 2.4
26/04:30am 21.9 22.9 16.4 71 3.3 SSE 6 15 3 8 - - 2.4
26/04:00am 21.9 22.9 16.4 71 3.3 SSE 6 19 3 10 - - 2.4
26/03:30am 22.0 22.5 16.5 71 3.3 SE 9 20 5 11 - - 2.4
26/03:00am 22.1 22.9 16.4 70 3.5 S 7 20 4 11 - - 2.4
26/02:30am 22.4 22.8 16.4 69 3.6 S 9 28 5 15 - - 2.4
26/02:00am 22.8 23.3 16.6 68 3.8 S 9 22 5 12 - - 2.4
26/01:30am 23.6 23.9 16.9 66 4.1 E 11 43 6 23 - - 2.4
26/01:00am 24.0 23.2 17.0 65 4.3 E 17 41 9 22 - - 2.4
26/12:30am 24.8 24.8 17.3 63 4.7 E 13 32 7 17 - - 2.4
26/12:00am 25.3 24.1 17.5 62 4.9 E 20 43 11 23 - - 2.4
 
Date/Time
WST
Temp
°C
App
Temp
°C
Dew
Point
°C
Rel
Hum
%
Delta-T
°C
Wind Press
QNH
hPa
Press
MSL
hPa
Rain since
9am
mm
Dir  Spd
km/h
Gust
km/h
Spd
kts
Gust
kts
25/11:30pm 25.8 24.7 17.4 59 5.3 E 19 37 10 20 - - 2.4
25/11:00pm 26.3 26.3 17.1 57 5.7 E 13 37 7 20 - - 2.4

Other formats

Comma delimited format used in spreadsheet applications
http://www.bom.gov.au/fwo/IDW60801/IDW60801.94795.axf

JavaScript Object Notation format (JSON) in row-major order
http://www.bom.gov.au/fwo/IDW60801/IDW60801.94795.json

Data quality

Most of these data are generated automatically and are frequently updated. Quality checks on data are not normally performed. It is possible for incorrect values to appear. Refer to information at About Latest Weather Observations and please check the disclaimer before using these data.